createdAt,value
2022-10-11T00:00:25.912Z,15.90
2022-10-11T00:03:28.102Z,11.65
2022-10-11T00:06:30.339Z,11.77
2022-10-11T00:09:32.597Z,11.85
2022-10-11T00:12:35.285Z,11.17
2022-10-11T00:15:40.392Z,11.97
2022-10-11T00:18:42.564Z,14.00
2022-10-11T00:21:44.975Z,13.05
2022-10-11T00:24:47.203Z,13.95
2022-10-11T00:27:49.374Z,11.23
2022-10-11T00:30:51.549Z,15.43
2022-10-11T00:33:54.624Z,14.13
2022-10-11T00:36:56.915Z,12.95
2022-10-11T00:39:59.184Z,13.40
2022-10-11T00:43:01.805Z,11.87
2022-10-11T00:46:08.201Z,12.10
2022-10-11T00:49:22.265Z,13.30
2022-10-11T00:52:32.188Z,12.32
2022-10-11T00:55:39.437Z,12.43
2022-10-11T00:58:42.613Z,12.80
2022-10-11T01:01:45.035Z,13.20
2022-10-11T01:04:47.400Z,11.70
2022-10-11T01:07:50.886Z,12.68
2022-10-11T01:10:53.325Z,17.13
2022-10-11T01:14:10.357Z,13.13
2022-10-11T01:17:30.741Z,13.23
2022-10-11T01:20:52.838Z,17.20
2022-10-11T01:24:09.964Z,17.27
2022-10-11T01:27:43.951Z,15.38
2022-10-11T01:30:46.389Z,19.83
2022-10-11T01:33:59.132Z,15.27
2022-10-11T01:37:11.171Z,17.38
2022-10-11T01:40:18.455Z,16.02
2022-10-11T01:43:20.889Z,15.70
2022-10-11T01:46:24.327Z,15.13
2022-10-11T01:49:26.633Z,16.40
2022-10-11T01:52:30.952Z,16.27
2022-10-11T01:55:55.197Z,15.60
2022-10-11T01:59:12.240Z,18.50
2022-10-11T02:02:50.325Z,16.40
2022-10-11T02:06:00.051Z,17.93
2022-10-11T02:09:08.469Z,16.38
2022-10-11T02:12:13.022Z,15.90
2022-10-11T02:15:16.820Z,15.48
2022-10-11T02:18:25.492Z,14.43
2022-10-11T02:21:27.988Z,14.23
2022-10-11T02:24:32.719Z,17.17
2022-10-11T02:27:38.381Z,13.55
2022-10-11T02:30:42.376Z,16.88
2022-10-11T02:33:58.638Z,16.50
2022-10-11T02:37:09.718Z,15.57
2022-10-11T02:40:21.447Z,16.50
2022-10-11T02:43:30.807Z,16.15
2022-10-11T02:46:33.538Z,17.20
2022-10-11T02:49:35.952Z,16.83
2022-10-11T02:52:38.095Z,19.37
2022-10-11T02:55:40.493Z,19.35
2022-10-11T02:58:42.613Z,17.65
2022-10-11T03:01:44.843Z,16.73
2022-10-11T03:04:47.106Z,18.37
2022-10-11T03:07:49.269Z,18.47
2022-10-11T03:10:51.383Z,17.85
2022-10-11T03:13:53.633Z,18.90
2022-10-11T03:16:58.151Z,19.88
2022-10-11T03:20:10.350Z,19.27
2022-10-11T03:23:14.308Z,18.53
2022-10-11T03:26:16.415Z,20.20
2022-10-11T03:29:18.527Z,21.98
2022-10-11T03:32:20.656Z,21.55
2022-10-11T03:35:22.800Z,18.03
2022-10-11T03:38:24.908Z,21.77
2022-10-11T03:41:27.054Z,22.95
2022-10-11T03:44:29.800Z,17.77
2022-10-11T03:47:32.997Z,19.95
2022-10-11T03:50:36.808Z,16.37
2022-10-11T03:53:40.308Z,17.80
2022-10-11T03:56:43.298Z,17.45
2022-10-11T03:59:46.297Z,17.45
2022-10-11T04:02:49.271Z,14.13
2022-10-11T04:05:52.268Z,16.67
2022-10-11T04:08:55.266Z,15.63
2022-10-11T04:11:58.257Z,16.40
2022-10-11T04:15:01.042Z,15.45
2022-10-11T04:18:04.134Z,15.32
2022-10-11T04:21:07.435Z,14.67
2022-10-11T04:24:12.670Z,13.77
2022-10-11T04:27:17.508Z,13.25
2022-10-11T04:30:21.106Z,14.65
2022-10-11T04:33:24.199Z,12.27
2022-10-11T04:36:27.194Z,12.73
2022-10-11T04:39:30.292Z,13.23
2022-10-11T04:42:33.485Z,12.82
2022-10-11T04:45:36.575Z,14.05
2022-10-11T04:48:39.576Z,13.85
2022-10-11T04:51:42.590Z,14.03
2022-10-11T04:54:45.795Z,12.73
2022-10-11T04:57:48.851Z,13.00
2022-10-11T05:00:51.944Z,12.32
2022-10-11T05:03:55.334Z,12.57
2022-10-11T05:06:58.334Z,11.17
2022-10-11T05:10:01.318Z,11.23
2022-10-11T05:13:04.520Z,11.20
2022-10-11T05:16:10.947Z,12.45
2022-10-11T05:19:14.497Z,13.32
2022-10-11T05:22:17.487Z,11.00
2022-10-11T05:25:20.582Z,10.57
2022-10-11T05:28:23.410Z,11.45
2022-10-11T05:31:26.489Z,11.30
2022-10-11T05:34:29.555Z,10.18
2022-10-11T05:37:32.953Z,13.97
2022-10-11T05:40:37.681Z,11.30
2022-10-11T05:43:40.782Z,12.23
2022-10-11T05:46:43.867Z,11.27
2022-10-11T05:49:46.965Z,11.55
2022-10-11T05:52:49.953Z,12.63
2022-10-11T05:55:53.046Z,11.27
2022-10-11T05:59:01.360Z,11.38
2022-10-11T06:02:05.273Z,12.60
2022-10-11T06:05:08.573Z,11.82
2022-10-11T06:08:11.771Z,11.10
2022-10-11T06:11:22.956Z,12.77
2022-10-11T06:14:26.451Z,15.13
2022-10-11T06:17:29.653Z,12.63
2022-10-11T06:20:32.644Z,12.85
2022-10-11T06:23:35.839Z,12.80
2022-10-11T06:26:38.885Z,13.23
2022-10-11T06:29:41.346Z,13.02
2022-10-11T06:32:43.430Z,13.02
2022-10-11T06:35:47.271Z,13.93
2022-10-11T06:38:52.338Z,11.13
2022-10-11T06:41:54.472Z,13.10
2022-10-11T06:44:56.657Z,13.60
2022-10-11T06:47:58.827Z,11.35
2022-10-11T06:51:01.025Z,10.95
2022-10-11T06:54:03.718Z,9.83
2022-10-11T06:57:06.174Z,8.07
2022-10-11T07:00:12.511Z,10.48
2022-10-11T07:03:14.968Z,8.40
2022-10-11T07:06:22.305Z,8.50
2022-10-11T07:09:24.445Z,8.07
2022-10-11T07:12:26.633Z,11.90
2022-10-11T07:15:28.934Z,9.13
2022-10-11T07:18:31.372Z,6.32
2022-10-11T07:21:34.799Z,7.80
2022-10-11T07:24:36.910Z,8.03
2022-10-11T07:27:39.030Z,9.73
2022-10-11T07:30:42.191Z,8.93
2022-10-11T07:33:44.466Z,7.55
2022-10-11T07:36:47.068Z,7.78
2022-10-11T07:39:49.788Z,8.20
2022-10-11T07:42:51.916Z,7.03
2022-10-11T07:45:55.644Z,8.05
2022-10-11T07:48:58.187Z,7.55
2022-10-11T07:52:00.340Z,7.85
2022-10-11T07:55:02.480Z,6.73
2022-10-11T07:58:04.599Z,6.20
2022-10-11T08:01:08.570Z,7.00
2022-10-11T08:04:11.445Z,7.25
2022-10-11T08:07:14.537Z,8.57
2022-10-11T08:10:18.039Z,7.80
2022-10-11T08:13:21.131Z,7.90
2022-10-11T08:16:24.227Z,8.98
2022-10-11T08:19:27.213Z,6.80
2022-10-11T08:22:30.822Z,9.50
2022-10-11T08:25:42.824Z,6.60
2022-10-11T08:28:45.944Z,7.83
2022-10-11T08:31:48.909Z,8.32
2022-10-11T08:34:52.021Z,11.18
2022-10-11T08:37:54.481Z,7.45
2022-10-11T08:40:59.497Z,11.00
2022-10-11T08:44:05.341Z,7.40
2022-10-11T08:47:37.935Z,9.45
2022-10-11T08:50:41.203Z,9.88
2022-10-11T08:53:44.936Z,6.38
2022-10-11T08:56:47.186Z,8.80
2022-10-11T09:00:15.506Z,9.03
2022-10-11T09:03:29.061Z,9.80
2022-10-11T09:06:31.134Z,7.72
2022-10-11T09:09:57.556Z,9.35
2022-10-11T09:13:31.155Z,8.97
2022-10-11T09:16:54.687Z,10.47
2022-10-11T09:20:22.557Z,10.73
2022-10-11T09:23:42.579Z,8.60
2022-10-11T09:27:29.095Z,8.25
2022-10-11T09:30:37.370Z,10.77
2022-10-11T09:33:51.229Z,10.60
2022-10-11T09:37:11.715Z,8.85
2022-10-11T09:40:19.465Z,10.02
2022-10-11T09:43:21.869Z,10.20
2022-10-11T09:46:36.778Z,10.03
2022-10-11T09:49:49.668Z,9.67
2022-10-11T09:52:54.013Z,8.63
2022-10-11T09:56:03.520Z,9.98
2022-10-11T09:59:24.434Z,10.48
2022-10-11T10:02:29.883Z,9.77
2022-10-11T10:05:35.532Z,11.40
2022-10-11T10:08:38.625Z,11.27
2022-10-11T10:11:41.516Z,11.73
2022-10-11T10:14:44.106Z,12.63
2022-10-11T10:17:50.846Z,10.83
2022-10-11T10:20:57.768Z,9.83
2022-10-11T10:24:04.040Z,11.52
2022-10-11T10:27:17.098Z,9.85
2022-10-11T10:30:20.049Z,11.68
2022-10-11T10:33:34.076Z,9.80
2022-10-11T10:36:39.416Z,13.30
2022-10-11T10:39:42.658Z,12.00
2022-10-11T10:42:44.758Z,12.70
2022-10-11T10:46:05.995Z,9.90
2022-10-11T10:53:23.271Z,9.33
2022-10-11T10:56:34.815Z,10.38
2022-10-11T11:00:36.870Z,9.40
2022-10-11T11:03:51.050Z,10.20
2022-10-11T11:07:03.740Z,10.50
2022-10-11T11:10:07.708Z,10.13
2022-10-11T11:13:30.354Z,9.90
2022-10-11T11:16:39.342Z,11.63
2022-10-11T11:20:11.461Z,11.05
2022-10-11T11:23:32.130Z,10.83
2022-10-11T11:26:47.038Z,13.13
2022-10-11T11:30:01.362Z,12.88
2022-10-11T11:33:09.330Z,10.88
2022-10-11T11:36:15.301Z,12.63
2022-10-11T11:39:26.207Z,11.90
2022-10-11T11:42:36.698Z,12.13
2022-10-11T11:45:46.112Z,10.93
2022-10-11T11:48:51.230Z,12.18
2022-10-11T11:51:54.033Z,11.25
2022-10-11T11:55:09.088Z,12.93
2022-10-11T11:58:26.469Z,12.73
2022-10-11T12:01:39.852Z,13.80
2022-10-11T12:04:44.377Z,17.50
2022-10-11T12:08:18.548Z,13.68
2022-10-11T12:11:29.505Z,13.00
2022-10-11T12:14:41.619Z,16.77
2022-10-11T12:17:56.375Z,20.52
2022-10-11T12:21:06.526Z,15.32
2022-10-11T12:24:11.474Z,14.50
2022-10-11T12:27:37.815Z,14.47
2022-10-11T12:30:51.045Z,16.73
2022-10-11T12:34:09.193Z,14.85
2022-10-11T12:37:18.120Z,16.58
2022-10-11T12:40:41.862Z,15.88
2022-10-11T12:43:50.202Z,11.90
2022-10-11T12:46:54.939Z,14.17
2022-10-11T12:50:20.232Z,16.30
2022-10-11T12:54:26.144Z,15.02
2022-10-11T12:57:45.237Z,13.63
2022-10-11T13:00:51.066Z,15.07
2022-10-11T13:04:01.338Z,16.00
2022-10-11T13:07:07.941Z,16.00
2022-10-11T13:10:20.665Z,13.80
2022-10-11T13:13:27.267Z,14.75
2022-10-11T13:16:46.512Z,16.00
2022-10-11T13:19:54.414Z,17.17
2022-10-11T13:22:57.613Z,15.25
2022-10-11T13:26:01.321Z,15.75
2022-10-11T13:29:04.722Z,14.30
2022-10-11T13:32:23.992Z,13.87
2022-10-11T13:35:37.124Z,16.63
2022-10-11T13:38:41.033Z,14.40
2022-10-11T13:41:44.129Z,13.88
2022-10-11T13:44:47.743Z,15.90
2022-10-11T13:47:52.465Z,17.00
2022-10-11T13:51:18.596Z,15.90
2022-10-11T13:54:21.589Z,14.23
2022-10-11T13:57:32.829Z,13.35
2022-10-11T14:00:37.643Z,14.52
2022-10-11T14:03:44.238Z,15.63
2022-10-11T14:06:48.320Z,15.20
2022-10-11T14:09:50.613Z,14.63
2022-10-11T14:13:23.883Z,14.63
2022-10-11T14:16:25.977Z,14.63
2022-10-11T14:19:28.115Z,15.47
2022-10-11T14:22:30.376Z,16.40
2022-10-11T14:25:32.841Z,16.50
2022-10-11T14:28:35.068Z,20.45
2022-10-11T14:31:41.459Z,17.35
2022-10-11T14:34:48.789Z,17.90
2022-10-11T14:37:51.005Z,15.37
2022-10-11T14:40:54.704Z,16.95
2022-10-11T14:43:57.889Z,14.77
2022-10-11T14:47:00.168Z,16.50
2022-10-11T14:50:34.738Z,16.83
2022-10-11T14:53:40.899Z,14.57
2022-10-11T14:56:44.517Z,15.40
2022-10-11T14:59:47.918Z,19.25
2022-10-11T15:02:53.571Z,22.80
2022-10-11T15:05:56.969Z,22.60
2022-10-11T15:09:00.581Z,43.27
2022-10-11T15:12:04.077Z,20.38
2022-10-11T15:15:07.780Z,16.48
2022-10-11T15:18:13.453Z,18.88
2022-10-11T15:21:17.756Z,24.83
2022-10-11T15:24:21.366Z,17.40
2022-10-11T15:27:27.633Z,21.83
2022-10-11T15:30:41.070Z,22.38
2022-10-11T15:33:45.084Z,17.52
2022-10-11T15:36:48.498Z,15.00
2022-10-11T15:39:51.783Z,15.13
2022-10-11T15:42:55.183Z,16.35
2022-10-11T15:45:58.703Z,26.73
2022-10-11T15:49:06.562Z,31.15
2022-10-11T15:52:09.192Z,32.83
2022-10-11T15:55:11.348Z,61.13
2022-10-11T15:58:15.437Z,56.15
2022-10-11T16:01:20.598Z,40.42
2022-10-11T16:04:22.849Z,27.48
2022-10-11T16:07:25.574Z,17.67
2022-10-11T16:10:28.768Z,20.33
2022-10-11T16:13:32.475Z,16.33
2022-10-11T16:16:35.770Z,20.02
2022-10-11T16:19:38.154Z,21.38
2022-10-11T16:22:41.166Z,21.20
2022-10-11T16:25:43.495Z,20.17
2022-10-11T16:28:47.631Z,19.52
2022-10-11T16:31:49.801Z,19.20
2022-10-11T16:34:51.970Z,23.45
2022-10-11T16:37:54.060Z,24.17
2022-10-11T16:40:56.168Z,29.57
2022-10-11T16:43:58.314Z,24.38
2022-10-11T16:47:00.748Z,23.67
2022-10-11T16:50:03.680Z,21.80
2022-10-11T16:53:05.980Z,21.60
2022-10-11T16:56:10.291Z,24.30
2022-10-11T16:59:13.014Z,22.25
2022-10-11T17:02:21.251Z,24.83
2022-10-11T17:05:23.386Z,23.88
2022-10-11T17:08:25.577Z,31.00
2022-10-11T17:11:28.041Z,28.03
2022-10-11T17:14:30.154Z,26.35
2022-10-11T17:17:32.323Z,25.75
2022-10-11T17:20:34.555Z,24.38
2022-10-11T17:23:37.514Z,21.50
2022-10-11T17:26:39.936Z,22.73
2022-10-11T17:29:42.215Z,24.67
2022-10-11T17:32:44.339Z,22.63
2022-10-11T17:35:46.511Z,20.90
2022-10-11T17:38:49.774Z,20.90
2022-10-11T17:41:52.948Z,20.50
2022-10-11T17:44:55.310Z,22.95
2022-10-11T17:47:57.959Z,22.85
2022-10-11T17:51:14.874Z,21.45
2022-10-11T17:54:17.074Z,23.27
2022-10-11T17:57:19.610Z,23.97
2022-10-11T18:00:23.123Z,26.08
2022-10-11T18:03:26.464Z,28.73
2022-10-11T18:06:33.936Z,25.17
2022-10-11T18:09:37.236Z,25.50
2022-10-11T18:12:39.532Z,26.07
2022-10-11T18:15:51.432Z,25.00
2022-10-11T18:18:57.859Z,23.17
2022-10-11T18:22:04.421Z,24.50
2022-10-11T18:25:09.346Z,26.70
2022-10-11T18:28:12.003Z,29.20
2022-10-11T18:31:17.133Z,25.70
2022-10-11T18:34:20.768Z,29.92
2022-10-11T18:37:25.094Z,32.83
2022-10-11T18:40:28.588Z,30.40
2022-10-11T18:43:31.580Z,31.73
2022-10-11T18:46:35.799Z,30.70
2022-10-11T18:49:39.507Z,28.40
2022-10-11T18:52:44.528Z,30.27
2022-10-11T18:55:46.823Z,30.67
2022-10-11T18:58:50.727Z,30.40
2022-10-11T19:01:55.653Z,29.88
2022-10-11T19:04:59.356Z,33.55
2022-10-11T19:08:01.535Z,30.30
2022-10-11T19:11:07.962Z,31.07
2022-10-11T19:14:14.601Z,31.37
2022-10-11T19:17:17.296Z,55.15
2022-10-11T19:20:20.220Z,32.17
2022-10-11T19:23:24.236Z,35.63
2022-10-11T19:26:33.988Z,34.73
2022-10-11T19:29:39.740Z,33.13
2022-10-11T19:32:42.736Z,36.65
2022-10-11T19:36:00.470Z,40.10
2022-10-11T19:39:05.630Z,41.70
2022-10-11T19:42:08.189Z,36.93
2022-10-11T19:45:11.019Z,34.37
2022-10-11T19:48:14.092Z,33.70
2022-10-11T19:51:20.069Z,32.55
2022-10-11T19:54:22.996Z,35.90
2022-10-11T19:57:25.224Z,32.27
2022-10-11T20:00:27.490Z,36.73
2022-10-11T20:03:29.990Z,36.85
2022-10-11T20:06:38.058Z,36.25
2022-10-11T20:09:40.837Z,36.30
2022-10-11T20:12:45.929Z,36.63
2022-10-11T20:15:48.354Z,40.93
2022-10-11T20:18:51.053Z,39.95
2022-10-11T20:21:53.318Z,38.17
2022-10-11T20:24:56.259Z,37.58
2022-10-11T20:27:59.261Z,36.20
2022-10-11T20:31:04.458Z,38.13
2022-10-11T20:34:07.679Z,35.85
2022-10-11T20:37:10.898Z,37.20
2022-10-11T20:40:13.921Z,34.90
2022-10-11T20:43:16.082Z,42.90
2022-10-11T20:46:29.829Z,47.60
2022-10-11T20:49:32.109Z,47.97
2022-10-11T20:52:34.555Z,42.15
2022-10-11T20:55:37.313Z,45.92
2022-10-11T20:58:40.263Z,45.73
2022-10-11T21:01:42.797Z,44.27
2022-10-11T21:04:45.439Z,65.82
2022-10-11T21:07:50.624Z,48.92
2022-10-11T21:10:54.399Z,38.28
2022-10-11T21:14:01.093Z,41.87
2022-10-11T21:17:03.348Z,37.50
2022-10-11T21:20:06.389Z,38.63
2022-10-11T21:23:09.328Z,38.08
2022-10-11T21:26:12.908Z,43.65
2022-10-11T21:29:15.089Z,42.37
2022-10-11T21:32:17.388Z,37.97
2022-10-11T21:35:19.535Z,39.95
2022-10-11T21:38:21.647Z,39.88
2022-10-11T21:41:25.895Z,38.88
2022-10-11T21:44:31.657Z,43.20
2022-10-11T21:47:38.115Z,38.73
2022-10-11T21:50:41.295Z,45.28
2022-10-11T21:53:43.413Z,40.85
2022-10-11T21:56:45.567Z,42.33
2022-10-11T21:59:47.744Z,40.47
2022-10-11T22:02:52.356Z,44.00
2022-10-11T22:05:54.828Z,39.97
2022-10-11T22:08:57.329Z,40.58
2022-10-11T22:11:59.424Z,41.22
2022-10-11T22:15:01.585Z,45.20
2022-10-11T22:18:04.143Z,39.87
2022-10-11T22:21:13.452Z,39.22
2022-10-11T22:24:16.679Z,38.60
2022-10-11T22:27:18.854Z,39.78
2022-10-11T22:30:20.964Z,43.23
2022-10-11T22:33:23.133Z,38.97
2022-10-11T22:36:25.889Z,39.95
2022-10-11T22:39:28.119Z,40.75
2022-10-11T22:42:30.442Z,37.42
2022-10-11T22:45:32.541Z,39.83
2022-10-11T22:48:34.887Z,40.27
2022-10-11T22:51:37.177Z,41.05
2022-10-11T22:54:39.411Z,41.05
2022-10-11T22:57:41.583Z,41.58
2022-10-11T23:00:43.821Z,38.83
2022-10-11T23:03:50.655Z,40.93
2022-10-11T23:06:52.920Z,38.20
2022-10-11T23:09:55.096Z,36.30
2022-10-11T23:12:57.236Z,41.10
2022-10-11T23:15:59.494Z,42.87
2022-10-11T23:19:01.666Z,37.50
2022-10-11T23:22:03.943Z,42.10
2022-10-11T23:25:06.730Z,42.75
2022-10-11T23:28:08.974Z,44.63
2022-10-11T23:31:17.080Z,45.60
2022-10-11T23:34:19.243Z,45.93
2022-10-11T23:37:21.451Z,43.80
2022-10-11T23:40:23.566Z,45.40
2022-10-11T23:43:25.761Z,39.72
2022-10-11T23:46:27.895Z,41.93
2022-10-11T23:49:30.030Z,43.63
2022-10-11T23:52:32.227Z,43.50
2022-10-11T23:55:34.433Z,40.92
2022-10-11T23:58:36.634Z,43.20
